Jerseyville, New Jersey
Current Conditions -  °F | °C
As of 2:15 AM on Saturday 20 Dec 2014 (Local Time) from KBLM Reporting Station
Overcast Overcast  
Wind Chill: 30°   Ceiling: 2600
Heat Index: 30°   Visibility: 10mi
Dew Point: 19°   Wind: 3mph
Humidity: 64%   Direction: 320°NW
Pressure: 30.19"   Gusts: NA
Location:  40.2229°N, 74.3007°W
Report Text: KBLM 200715Z AUTO 32003KT 10SM OVC026 M01/M07 A3019 RMK AO1
Loading
Personal Weather Stations






























Interactive Weather Map New forecast layout! Learn more

10-Day Weather Forecast

Advertisements
Track Severe Weather on mobile